createdAt,value
2022-07-27T00:00:48.096Z,100638.81
2022-07-27T00:03:14.902Z,100641.88
2022-07-27T00:05:41.775Z,100649.97
2022-07-27T00:08:08.521Z,100650.59
2022-07-27T00:10:36.833Z,100661.84
2022-07-27T00:13:05.147Z,100660.25
2022-07-27T00:15:33.524Z,100664.47
2022-07-27T00:18:01.153Z,100651.47
2022-07-27T00:20:32.051Z,100657.59
2022-07-27T00:22:59.609Z,100651.84
2022-07-27T00:25:27.643Z,100650.41
2022-07-27T00:27:57.941Z,100651.28
2022-07-27T00:30:26.183Z,100652.09
2022-07-27T00:32:53.337Z,100647.41
2022-07-27T00:35:20.182Z,100648.41
2022-07-27T00:37:46.871Z,100646.69
2022-07-27T00:40:13.553Z,100651.47
2022-07-27T00:42:40.197Z,100649.53
2022-07-27T00:45:07.673Z,100653.66
2022-07-27T00:47:34.336Z,100654.81
2022-07-27T00:50:02.938Z,100663.00
2022-07-27T00:52:30.721Z,100660.44
2022-07-27T00:54:58.706Z,100659.03
2022-07-27T00:57:26.965Z,100658.69
2022-07-27T00:59:54.162Z,100661.91
2022-07-27T01:02:22.956Z,100667.50
2022-07-27T01:04:53.665Z,100664.00
2022-07-27T01:07:24.722Z,100659.66
2022-07-27T01:09:58.195Z,100665.09
2022-07-27T01:12:30.728Z,100664.63
2022-07-27T01:14:58.764Z,100664.16
2022-07-27T01:17:27.172Z,100661.63
2022-07-27T01:19:53.854Z,100663.22
2022-07-27T01:22:20.582Z,100667.06
2022-07-27T01:24:48.553Z,100668.31
2022-07-27T01:27:15.213Z,100669.53
2022-07-27T01:29:42.092Z,100672.34
2022-07-27T01:32:08.912Z,100681.31
2022-07-27T01:34:36.060Z,100677.59
2022-07-27T01:37:04.741Z,100676.78
2022-07-27T01:39:32.239Z,100663.13
2022-07-27T01:41:59.695Z,100661.06
2022-07-27T01:44:26.570Z,100649.06
2022-07-27T01:46:53.633Z,100653.72
2022-07-27T01:49:20.535Z,100653.53
2022-07-27T01:51:47.220Z,100653.34
2022-07-27T01:54:14.061Z,100652.53
2022-07-27T01:56:41.158Z,100651.06
2022-07-27T01:59:07.946Z,100657.00
2022-07-27T02:01:43.069Z,100653.00
2022-07-27T02:04:10.000Z,100650.81
2022-07-27T02:06:36.713Z,100652.59
2022-07-27T02:09:03.662Z,100649.88
2022-07-27T02:11:48.883Z,100652.59
2022-07-27T02:14:16.470Z,100655.97
2022-07-27T02:16:43.447Z,100649.56
2022-07-27T02:19:11.276Z,100655.84
2022-07-27T02:21:38.951Z,100658.91
2022-07-27T02:24:06.015Z,100657.16
2022-07-27T02:26:32.748Z,100642.91
2022-07-27T02:28:59.500Z,100655.28
2022-07-27T02:31:26.171Z,100646.47
2022-07-27T02:33:59.516Z,100655.81
2022-07-27T02:36:29.154Z,100641.81
2022-07-27T02:38:55.802Z,100647.00
2022-07-27T02:41:22.509Z,100644.13
2022-07-27T02:43:49.115Z,100638.50
2022-07-27T02:46:15.914Z,100638.13
2022-07-27T02:48:42.629Z,100641.56
2022-07-27T02:51:09.260Z,100643.66
2022-07-27T02:53:35.943Z,100642.19
2022-07-27T02:56:02.717Z,100644.28
2022-07-27T02:58:29.687Z,100633.22
2022-07-27T03:00:58.604Z,100648.63
2022-07-27T03:03:35.986Z,100643.81
2022-07-27T03:06:05.957Z,100649.91
2022-07-27T03:08:32.613Z,100641.91
2022-07-27T03:10:59.363Z,100647.16
2022-07-27T03:13:28.865Z,100647.84
2022-07-27T03:15:56.544Z,100652.81
2022-07-27T03:18:23.405Z,100646.88
2022-07-27T03:20:50.177Z,100652.97
2022-07-27T03:23:18.423Z,100653.94
2022-07-27T03:25:45.095Z,100657.78
2022-07-27T03:28:11.931Z,100652.34
2022-07-27T03:30:38.614Z,100653.66
2022-07-27T03:33:05.305Z,100644.03
2022-07-27T03:35:32.089Z,100639.72
2022-07-27T03:37:59.034Z,100644.72
2022-07-27T03:40:25.688Z,100646.28
2022-07-27T03:42:52.324Z,100645.63
2022-07-27T03:45:19.404Z,100639.53
2022-07-27T03:47:46.021Z,100645.00
2022-07-27T03:50:12.674Z,100652.22
2022-07-27T03:52:39.349Z,100653.38
2022-07-27T03:55:12.068Z,100651.94
2022-07-27T03:57:38.719Z,100653.56
2022-07-27T04:00:06.795Z,100656.94
2022-07-27T04:02:33.581Z,100662.56
2022-07-27T04:05:00.261Z,100662.09
2022-07-27T04:07:27.177Z,100666.25
2022-07-27T04:09:53.855Z,100664.63
2022-07-27T04:12:20.605Z,100663.38
2022-07-27T04:14:47.965Z,100657.44
2022-07-27T04:17:55.569Z,100662.41
2022-07-27T04:20:01.330Z,100668.16
2022-07-27T04:22:28.296Z,100671.84
2022-07-27T04:24:55.078Z,100677.94
2022-07-27T04:27:21.823Z,100676.50
2022-07-27T04:29:48.917Z,100664.78
2022-07-27T04:32:15.630Z,100672.81
2022-07-27T04:34:42.310Z,100672.31
2022-07-27T04:37:09.053Z,100662.09
2022-07-27T04:39:35.722Z,100668.66
2022-07-27T04:42:02.494Z,100665.63
2022-07-27T04:44:29.262Z,100672.03
2022-07-27T04:46:56.156Z,100667.84
2022-07-27T04:49:22.998Z,100682.75
2022-07-27T04:51:49.774Z,100669.63
2022-07-27T04:54:16.472Z,100680.34
2022-07-27T04:56:43.234Z,100678.91
2022-07-27T04:59:10.317Z,100680.19
2022-07-27T05:01:37.313Z,100686.75
2022-07-27T05:04:05.285Z,100699.41
2022-07-27T05:06:33.048Z,100700.53
2022-07-27T05:08:59.966Z,100698.78
2022-07-27T05:11:26.739Z,100703.09
2022-07-27T05:13:53.424Z,100706.00
2022-07-27T05:16:20.486Z,100713.72
2022-07-27T05:18:48.661Z,100713.38
2022-07-27T05:21:15.300Z,100709.19
2022-07-27T05:23:42.083Z,100715.28
2022-07-27T05:26:08.834Z,100720.91
2022-07-27T05:28:35.514Z,100726.97
2022-07-27T05:31:02.589Z,100725.53
2022-07-27T05:33:29.319Z,100726.19
2022-07-27T05:35:57.135Z,100727.13
2022-07-27T05:38:23.858Z,100725.03
2022-07-27T05:40:51.540Z,100724.53
2022-07-27T05:43:18.240Z,100722.28
2022-07-27T05:45:45.098Z,100721.16
2022-07-27T05:48:11.849Z,100717.59
2022-07-27T05:50:38.548Z,100720.13
2022-07-27T05:53:06.058Z,100723.31
2022-07-27T05:55:33.459Z,100724.41
2022-07-27T05:58:00.293Z,100723.56
2022-07-27T06:00:27.252Z,100724.97
2022-07-27T06:02:54.587Z,100730.72
2022-07-27T06:05:21.421Z,100731.50
2022-07-27T06:08:00.544Z,100739.09
2022-07-27T06:10:32.781Z,100733.13
2022-07-27T06:13:01.036Z,100733.91
2022-07-27T06:15:27.779Z,100729.41
2022-07-27T06:17:54.961Z,100734.13
2022-07-27T06:20:23.253Z,100736.38
2022-07-27T06:22:55.452Z,100735.56
2022-07-27T06:25:23.090Z,100737.63
2022-07-27T06:28:01.405Z,100739.75
2022-07-27T06:30:28.392Z,100736.97
2022-07-27T06:32:55.207Z,100739.53
2022-07-27T06:35:23.393Z,100746.34
2022-07-27T06:37:53.000Z,100743.06
2022-07-27T06:40:19.862Z,100735.63
2022-07-27T06:42:47.044Z,100739.72
2022-07-27T06:45:13.801Z,100736.41
2022-07-27T06:47:49.924Z,100741.34
2022-07-27T06:50:21.362Z,100743.34
2022-07-27T06:52:49.692Z,100747.94
2022-07-27T06:55:17.093Z,100746.94
2022-07-27T06:57:44.091Z,100751.53
2022-07-27T07:00:11.872Z,100749.78
2022-07-27T07:02:40.270Z,100760.56
2022-07-27T07:05:07.140Z,100765.03
2022-07-27T07:07:34.079Z,100762.38
2022-07-27T07:10:00.964Z,100758.50
2022-07-27T07:12:28.559Z,100755.66
2022-07-27T07:14:55.378Z,100767.81
2022-07-27T07:17:22.205Z,100761.09
2022-07-27T07:19:48.998Z,100767.19
2022-07-27T07:22:15.804Z,100773.38
2022-07-27T07:24:42.745Z,100772.81
2022-07-27T07:27:09.416Z,100772.25
2022-07-27T07:29:36.059Z,100775.94
2022-07-27T07:32:02.794Z,100776.28
2022-07-27T07:34:29.647Z,100773.06
2022-07-27T07:36:56.400Z,100774.66
2022-07-27T07:39:26.637Z,100777.75
2022-07-27T07:41:57.469Z,100781.97
2022-07-27T07:44:24.236Z,100768.84
2022-07-27T07:46:51.179Z,100776.03
2022-07-27T07:49:18.485Z,100779.66
2022-07-27T07:52:04.906Z,100780.59
2022-07-27T07:54:31.667Z,100776.06
2022-07-27T07:56:58.260Z,100777.84
2022-07-27T07:59:25.094Z,100775.66
2022-07-27T08:01:51.942Z,100776.03
2022-07-27T08:04:18.687Z,100768.06
2022-07-27T08:06:45.958Z,100779.84
2022-07-27T08:09:17.037Z,100777.34
2022-07-27T08:11:44.827Z,100773.19
2022-07-27T08:14:11.525Z,100771.47
2022-07-27T08:16:38.587Z,100773.97
2022-07-27T08:19:05.435Z,100774.31
2022-07-27T08:21:35.393Z,100779.38
2022-07-27T08:24:03.746Z,100774.00
2022-07-27T08:26:30.553Z,100779.09
2022-07-27T08:28:57.261Z,100768.56
2022-07-27T08:31:51.621Z,100774.59
2022-07-27T08:34:13.028Z,100774.25
2022-07-27T08:36:39.736Z,100765.91
2022-07-27T08:39:08.452Z,100762.22
2022-07-27T08:41:38.905Z,100760.81
2022-07-27T08:44:14.123Z,100771.78
2022-07-27T08:46:44.407Z,100766.81
2022-07-27T08:49:13.432Z,100764.19
2022-07-27T08:51:46.856Z,100758.75
2022-07-27T08:54:14.079Z,100763.97
2022-07-27T08:56:40.924Z,100754.41
2022-07-27T08:59:07.693Z,100751.25
2022-07-27T09:01:37.422Z,100760.09
2022-07-27T09:04:04.431Z,100758.50
2022-07-27T09:06:42.949Z,100761.88
2022-07-27T09:09:11.399Z,100761.47
2022-07-27T09:11:38.618Z,100756.19
2022-07-27T09:14:07.365Z,100757.75
2022-07-27T09:17:14.756Z,100754.72
2022-07-27T09:19:21.944Z,100757.41
2022-07-27T09:21:48.641Z,100754.97
2022-07-27T09:24:45.770Z,100757.00
2022-07-27T09:27:05.625Z,100757.38
2022-07-27T09:29:36.544Z,100758.00
2022-07-27T09:32:15.282Z,100759.19
2022-07-27T09:34:41.922Z,100760.94
2022-07-27T09:37:10.674Z,100755.88
2022-07-27T09:39:39.113Z,100755.69
2022-07-27T09:42:06.109Z,100764.94
2022-07-27T09:44:43.719Z,100761.50
2022-07-27T09:47:33.335Z,100763.00
2022-07-27T09:50:18.212Z,100754.09
2022-07-27T09:52:45.672Z,100758.53
2022-07-27T09:55:15.292Z,100764.47
2022-07-27T09:57:52.661Z,100762.84
2022-07-27T10:00:19.778Z,100762.38
2022-07-27T10:02:47.466Z,100753.22
2022-07-27T10:05:18.145Z,100751.53
2022-07-27T10:07:45.467Z,100759.28
2022-07-27T10:10:14.502Z,100754.59
2022-07-27T10:12:43.183Z,100763.41
2022-07-27T10:15:13.448Z,100763.00
2022-07-27T10:17:44.096Z,100766.41
2022-07-27T10:20:13.862Z,100762.81
2022-07-27T10:23:01.033Z,100766.50
2022-07-27T10:25:37.374Z,100763.50
2022-07-27T10:28:17.731Z,100770.53
2022-07-27T10:30:54.546Z,100757.53
2022-07-27T10:33:42.717Z,100755.38
2022-07-27T10:36:18.050Z,100757.19
2022-07-27T10:38:47.999Z,100760.72
2022-07-27T10:41:22.489Z,100758.44
2022-07-27T10:43:51.423Z,100761.59
2022-07-27T10:46:21.273Z,100769.72
2022-07-27T10:48:49.446Z,100767.34
2022-07-27T10:51:17.370Z,100765.19
2022-07-27T10:56:47.186Z,100754.38
2022-07-27T10:59:15.057Z,100741.47
2022-07-27T11:01:58.399Z,100742.34
2022-07-27T11:04:25.416Z,100739.31
2022-07-27T11:07:23.452Z,100740.38
2022-07-27T11:12:31.082Z,100744.16
2022-07-27T11:14:59.240Z,100735.47
2022-07-27T11:20:22.546Z,100742.03
2022-07-27T11:25:36.146Z,100740.25
2022-07-27T11:28:07.586Z,100743.78
2022-07-27T11:30:34.427Z,100738.44
2022-07-27T11:33:04.766Z,100741.81
2022-07-27T11:35:31.568Z,100738.84
2022-07-27T11:38:03.810Z,100742.13
2022-07-27T11:41:12.785Z,100727.88
2022-07-27T11:43:45.409Z,100722.31
2022-07-27T11:46:19.990Z,100723.25
2022-07-27T11:49:07.531Z,100717.97
2022-07-27T11:51:40.097Z,100720.94
2022-07-27T11:54:24.821Z,100729.63
2022-07-27T11:56:53.081Z,100733.94
2022-07-27T11:59:27.853Z,100727.56
2022-07-27T12:02:07.139Z,100723.34
2022-07-27T12:04:39.485Z,100716.69
2022-07-27T12:07:15.875Z,100711.25
2022-07-27T12:09:48.027Z,100719.44
2022-07-27T12:12:19.773Z,100714.91
2022-07-27T12:14:56.642Z,100714.63
2022-07-27T12:17:35.568Z,100705.59
2022-07-27T12:20:12.946Z,100714.03
2022-07-27T12:22:40.680Z,100713.34
2022-07-27T12:25:29.828Z,100704.38
2022-07-27T12:28:06.809Z,100708.22
2022-07-27T12:30:38.906Z,100705.91
2022-07-27T12:33:25.531Z,100709.06
2022-07-27T12:35:52.255Z,100704.28
2022-07-27T12:38:19.172Z,100700.75
2022-07-27T12:40:48.426Z,100699.16
2022-07-27T12:43:18.137Z,100697.16
2022-07-27T12:45:45.957Z,100697.09
2022-07-27T12:48:18.445Z,100696.22
2022-07-27T12:50:47.402Z,100697.69
2022-07-27T12:53:15.846Z,100692.19
2022-07-27T12:55:44.178Z,100687.81
2022-07-27T12:58:14.118Z,100680.13
2022-07-27T13:00:41.285Z,100680.13
2022-07-27T13:03:08.645Z,100686.13
2022-07-27T13:05:35.757Z,100678.69
2022-07-27T13:08:06.263Z,100680.28
2022-07-27T13:10:33.295Z,100670.94
2022-07-27T13:13:00.222Z,100668.69
2022-07-27T13:15:27.209Z,100655.75
2022-07-27T13:17:54.203Z,100657.31
2022-07-27T13:20:21.234Z,100662.44
2022-07-27T13:22:48.411Z,100663.16
2022-07-27T13:25:17.503Z,100650.94
2022-07-27T13:27:45.334Z,100654.19
2022-07-27T13:30:13.531Z,100656.41
2022-07-27T13:32:41.209Z,100656.09
2022-07-27T13:35:09.516Z,100649.97
2022-07-27T13:37:36.484Z,100653.13
2022-07-27T13:40:04.900Z,100657.25
2022-07-27T13:42:31.606Z,100638.28
2022-07-27T13:45:08.740Z,100645.28
2022-07-27T13:47:36.977Z,100642.09
2022-07-27T13:50:04.810Z,100637.72
2022-07-27T13:52:31.546Z,100645.22
2022-07-27T13:54:58.312Z,100637.31
2022-07-27T13:57:25.198Z,100642.34
2022-07-27T13:59:52.303Z,100646.00
2022-07-27T14:02:23.014Z,100644.31
2022-07-27T14:04:51.908Z,100641.88
2022-07-27T14:07:18.839Z,100641.38
2022-07-27T14:10:03.741Z,100633.25
2022-07-27T14:12:30.392Z,100634.41
2022-07-27T14:14:57.125Z,100642.19
2022-07-27T14:17:23.841Z,100631.94
2022-07-27T14:19:50.492Z,100629.13
2022-07-27T14:22:17.150Z,100630.53
2022-07-27T14:24:43.766Z,100633.41
2022-07-27T14:27:10.435Z,100641.16
2022-07-27T14:29:37.163Z,100641.69
2022-07-27T14:32:04.217Z,100645.38
2022-07-27T14:34:31.004Z,100645.88
2022-07-27T14:36:57.711Z,100650.44
2022-07-27T14:39:24.606Z,100649.56
2022-07-27T14:41:51.565Z,100636.53
2022-07-27T14:44:18.877Z,100642.09
2022-07-27T14:46:46.842Z,100643.06
2022-07-27T14:49:14.853Z,100653.25
2022-07-27T14:51:41.824Z,100646.56
2022-07-27T14:54:08.635Z,100653.50
2022-07-27T14:56:36.628Z,100657.09
2022-07-27T14:59:04.019Z,100646.84
2022-07-27T15:01:31.065Z,100642.59
2022-07-27T15:03:58.048Z,100637.56
2022-07-27T15:06:24.798Z,100643.38
2022-07-27T15:08:51.543Z,100646.06
2022-07-27T15:11:18.279Z,100646.69
2022-07-27T15:13:45.245Z,100638.28
2022-07-27T15:16:12.284Z,100624.06
2022-07-27T15:18:39.259Z,100626.22
2022-07-27T15:21:13.483Z,100625.53
2022-07-27T15:23:43.327Z,100626.34
2022-07-27T15:26:09.956Z,100623.97
2022-07-27T15:28:36.849Z,100626.34
2022-07-27T15:31:03.649Z,100617.69
2022-07-27T15:33:30.596Z,100627.75
2022-07-27T15:35:57.260Z,100623.81
2022-07-27T15:38:23.920Z,100619.03
2022-07-27T15:40:50.668Z,100612.09
2022-07-27T15:43:18.386Z,100610.06
2022-07-27T15:45:49.881Z,100603.16
2022-07-27T15:48:19.477Z,100596.25
2022-07-27T15:50:49.876Z,100607.91
2022-07-27T15:53:18.778Z,100606.06
2022-07-27T15:55:46.528Z,100591.00
2022-07-27T15:58:17.984Z,100594.69
2022-07-27T16:00:46.884Z,100600.25
2022-07-27T16:03:15.105Z,100601.69
2022-07-27T16:05:43.718Z,100600.63
2022-07-27T16:08:11.047Z,100596.75
2022-07-27T16:10:39.549Z,100597.88
2022-07-27T16:13:08.817Z,100591.72
2022-07-27T16:15:55.308Z,100588.56
2022-07-27T16:18:22.959Z,100592.13
2022-07-27T16:20:50.273Z,100586.22
2022-07-27T16:23:19.170Z,100598.94
2022-07-27T16:26:04.441Z,100586.59
2022-07-27T16:28:35.103Z,100589.09
2022-07-27T16:31:01.976Z,100589.81
2022-07-27T16:33:28.717Z,100585.91
2022-07-27T16:35:55.390Z,100585.28
2022-07-27T16:38:22.158Z,100584.63
2022-07-27T16:40:48.998Z,100578.22
2022-07-27T16:43:15.697Z,100585.16
2022-07-27T16:45:42.590Z,100573.19
2022-07-27T16:48:09.883Z,100577.13
2022-07-27T16:50:36.563Z,100563.25
2022-07-27T16:53:03.281Z,100573.25
2022-07-27T16:55:30.103Z,100579.34
2022-07-27T16:57:57.063Z,100571.84
2022-07-27T17:00:23.750Z,100579.56
2022-07-27T17:02:50.610Z,100576.28
2022-07-27T17:05:17.278Z,100580.78
2022-07-27T17:07:44.039Z,100583.84
2022-07-27T17:10:10.787Z,100581.13
2022-07-27T17:12:39.138Z,100582.81
2022-07-27T17:15:07.333Z,100584.75
2022-07-27T17:17:34.687Z,100587.03
2022-07-27T17:20:01.492Z,100579.09
2022-07-27T17:22:28.166Z,100582.13
2022-07-27T17:24:54.949Z,100576.16
2022-07-27T17:27:22.099Z,100577.28
2022-07-27T17:29:49.547Z,100577.16
2022-07-27T17:32:16.480Z,100580.16
2022-07-27T17:34:45.396Z,100578.50
2022-07-27T17:37:12.826Z,100583.44
2022-07-27T17:39:39.551Z,100582.81
2022-07-27T17:42:06.443Z,100587.25
2022-07-27T17:44:34.023Z,100584.72
2022-07-27T17:47:01.590Z,100577.63
2022-07-27T17:49:28.676Z,100587.81
2022-07-27T17:51:55.752Z,100575.06
2022-07-27T17:54:23.919Z,100586.16
2022-07-27T17:56:50.683Z,100578.91
2022-07-27T17:59:37.127Z,100583.94
2022-07-27T18:02:04.855Z,100586.97
2022-07-27T18:04:35.629Z,100585.38
2022-07-27T18:07:05.488Z,100573.34
2022-07-27T18:09:32.172Z,100581.47
2022-07-27T18:11:58.986Z,100584.97
2022-07-27T18:14:25.771Z,100586.03
2022-07-27T18:16:52.466Z,100591.16
2022-07-27T18:19:19.166Z,100594.34
2022-07-27T18:21:45.885Z,100594.69
2022-07-27T18:24:12.536Z,100602.13
2022-07-27T18:26:39.209Z,100598.16
2022-07-27T18:29:06.428Z,100605.81
2022-07-27T18:31:33.163Z,100607.94
2022-07-27T18:34:01.550Z,100613.19
2022-07-27T18:36:28.798Z,100622.81
2022-07-27T18:38:55.792Z,100619.63
2022-07-27T18:41:24.776Z,100635.06
2022-07-27T18:43:51.674Z,100632.53
2022-07-27T18:46:23.414Z,100635.88
2022-07-27T18:48:50.606Z,100635.31
2022-07-27T18:51:17.495Z,100649.72
2022-07-27T18:53:44.953Z,100637.97
2022-07-27T18:56:12.273Z,100644.13
2022-07-27T18:58:40.600Z,100648.69
2022-07-27T19:01:09.629Z,100644.59
2022-07-27T19:03:37.427Z,100651.00
2022-07-27T19:06:07.453Z,100652.84
2022-07-27T19:08:35.266Z,100655.78
2022-07-27T19:11:01.944Z,100658.78
2022-07-27T19:13:28.819Z,100655.13
2022-07-27T19:15:55.641Z,100660.16
2022-07-27T19:18:25.087Z,100660.78
2022-07-27T19:20:51.807Z,100666.03
2022-07-27T19:23:18.617Z,100674.47
2022-07-27T19:25:45.556Z,100673.53
2022-07-27T19:28:15.838Z,100681.66
2022-07-27T19:30:42.855Z,100670.91
2022-07-27T19:33:09.536Z,100681.75
2022-07-27T19:35:36.384Z,100682.75
2022-07-27T19:38:03.743Z,100685.41
2022-07-27T19:40:43.927Z,100683.00
2022-07-27T19:43:11.646Z,100683.66
2022-07-27T19:45:38.396Z,100687.41
2022-07-27T19:48:06.049Z,100685.38
2022-07-27T19:50:32.997Z,100694.00
2022-07-27T19:53:00.373Z,100692.94
2022-07-27T19:55:27.175Z,100696.13
2022-07-27T19:57:53.940Z,100696.91
2022-07-27T20:00:21.091Z,100699.19
2022-07-27T20:02:48.281Z,100704.66
2022-07-27T20:05:15.236Z,100698.06
2022-07-27T20:07:42.081Z,100701.47
2022-07-27T20:10:09.629Z,100711.13
2022-07-27T20:12:36.446Z,100712.44
2022-07-27T20:15:05.019Z,100708.69
2022-07-27T20:17:36.819Z,100706.13
2022-07-27T20:20:07.689Z,100702.28
2022-07-27T20:22:34.441Z,100693.16
2022-07-27T20:25:02.316Z,100695.75
2022-07-27T20:27:29.066Z,100704.97
2022-07-27T20:29:55.784Z,100697.63
2022-07-27T20:32:22.509Z,100701.47
2022-07-27T20:34:49.202Z,100699.97
2022-07-27T20:37:16.351Z,100699.81
2022-07-27T20:39:43.104Z,100698.09
2022-07-27T20:42:10.884Z,100706.81
2022-07-27T20:44:37.663Z,100704.78
2022-07-27T20:47:06.245Z,100707.69
2022-07-27T20:49:34.281Z,100703.25
2022-07-27T20:52:01.996Z,100706.63
2022-07-27T20:54:29.821Z,100706.16
2022-07-27T20:56:58.092Z,100705.66
2022-07-27T20:59:24.953Z,100703.75
2022-07-27T21:01:52.622Z,100702.94
2022-07-27T21:04:20.446Z,100688.56
2022-07-27T21:06:47.597Z,100697.84
2022-07-27T21:09:15.636Z,100704.63
2022-07-27T21:11:43.259Z,100709.78
2022-07-27T21:14:10.243Z,100706.25
2022-07-27T21:16:37.451Z,100715.75
2022-07-27T21:19:04.704Z,100708.88
2022-07-27T21:21:32.453Z,100712.06
2022-07-27T21:24:19.978Z,100708.41
2022-07-27T21:26:51.687Z,100706.31
2022-07-27T21:29:20.458Z,100699.72
2022-07-27T21:31:49.475Z,100703.56
2022-07-27T21:34:20.017Z,100702.00
2022-07-27T21:36:47.741Z,100699.72
2022-07-27T21:39:14.945Z,100699.06
2022-07-27T21:41:41.824Z,100703.88
2022-07-27T21:44:08.775Z,100701.94
2022-07-27T21:46:35.645Z,100705.00
2022-07-27T21:49:03.366Z,100708.88
2022-07-27T21:51:30.313Z,100707.59
2022-07-27T21:53:57.193Z,100702.00
2022-07-27T21:56:24.560Z,100704.91
2022-07-27T21:58:52.027Z,100711.66
2022-07-27T22:01:19.316Z,100711.19
2022-07-27T22:03:46.888Z,100705.28
2022-07-27T22:06:13.850Z,100703.66
2022-07-27T22:08:40.641Z,100710.25
2022-07-27T22:11:10.381Z,100706.84
2022-07-27T22:13:37.610Z,100706.56
2022-07-27T22:16:04.979Z,100714.09
2022-07-27T22:18:32.323Z,100718.28
2022-07-27T22:20:59.080Z,100706.22
2022-07-27T22:23:25.850Z,100719.53
2022-07-27T22:25:52.598Z,100712.34
2022-07-27T22:28:19.394Z,100715.06
2022-07-27T22:31:00.150Z,100723.88
2022-07-27T22:33:37.261Z,100724.72
2022-07-27T22:36:07.161Z,100733.19
2022-07-27T22:38:34.315Z,100736.56
2022-07-27T22:41:01.628Z,100729.19
2022-07-27T22:43:28.471Z,100728.22
2022-07-27T22:45:57.167Z,100730.31
2022-07-27T22:48:24.784Z,100725.84
2022-07-27T22:50:51.611Z,100727.44
2022-07-27T22:53:18.414Z,100725.84
2022-07-27T22:55:45.045Z,100725.03
2022-07-27T22:58:11.843Z,100726.81
2022-07-27T23:00:38.891Z,100725.19
2022-07-27T23:03:05.775Z,100733.25
2022-07-27T23:05:32.890Z,100728.91
2022-07-27T23:07:59.679Z,100731.81
2022-07-27T23:10:45.313Z,100730.19
2022-07-27T23:13:15.619Z,100739.03
2022-07-27T23:15:43.470Z,100733.56
2022-07-27T23:18:10.485Z,100739.53
2022-07-27T23:20:37.665Z,100730.03
2022-07-27T23:23:05.480Z,100731.66
2022-07-27T23:25:42.900Z,100731.81
2022-07-27T23:28:09.723Z,100730.03
2022-07-27T23:30:36.571Z,100726.84
2022-07-27T23:33:03.379Z,100724.44
2022-07-27T23:35:30.575Z,100727.97
2022-07-27T23:37:57.422Z,100720.22
2022-07-27T23:40:24.144Z,100722.16
2022-07-27T23:42:50.856Z,100719.28
2022-07-27T23:45:17.912Z,100723.91
2022-07-27T23:47:45.218Z,100728.22
2022-07-27T23:50:14.422Z,100717.69
2022-07-27T23:52:41.167Z,100722.94
2022-07-27T23:55:08.445Z,100723.56
2022-07-27T23:57:35.313Z,100722.63
